KDLS

Columbia Gorge Regional / The Dalles Municipal Airport

The Dalles, Oregon, USA
METAR KDLS 210453Z AUTO 28008KT 6SM HZ OVC045 23/15 A2997 RMK AO2 SLP145 T02280150 TSNO
Observed Flight Rules
Aug-21 @ 04:53 UTC (9 hours ago) Visual Flight Rules
Wind Visibility Clouds Conditions
280° at 8 knots 6 miles
  • Overcast at 4,500' AGL
  • Haze
Temperatures Readings
Current 23°C / 73°F
Dewpoint 15°C / 59°F
Humidity 61%
Altimeter 29.97" Hg
Pressure 1014.5 hPa
Elevation 71
METAR KDLS 210453Z AUTO 28008KT 6SM HZ OVC045 23/15 A2997 RMK AO2 SLP145 T02280150 TSNO
Observed Flight Rules
Aug-21 @ 04:53 UTC
(9 hours ago)
VFR
Wind Visibility
280° at 8 knots 6 miles
Clouds
  • Overcast at 4,500' AGL
Conditions
  • Haze
Temperature Dewpoint
23°C / 73°F 15°C / 59°F
Humidity Altimeter Pressure
61% 29.97" Hg 1014.5 hPa